Aeroporto :







RITROVATECI SU...

 
LOGIN :

Iscrizione | Disclaimer

   EN    FR    IT 

 









Sommario :    VFR   VFR Marginale   IFR   IFR Intensivo   IFR Molto Intensivo
Visibilità : 
Base nubi : 
>= 8 km
>= 3000ft
5 / 8 km
1000 / 3000 ft
1500m / 5 km
500 / 1000 ft
800 / 1500m
200 / 500 ft
< 800m
< 200 ft
Simboli :   Temporali  Nebbia  Neve Forte  Precipitazioni Forti  Vento > 20 kt






- Altitudine del aeroporto : 14 ft
- Codice IATA : UVF


TLPL - Hewanorra Int.

ULTIMO METAR :
  • 192000Z 09023KT 9999 SCT025 28/21 Q1014 NOSIG

METARs OBSOLETI :
  • 191900Z 09024KT 9999 BKN023 28/22 Q1014 NOSIG
  • 191800Z 10022KT 9000 VCSH BKN021 BKN044 28/23 Q1014 TEMPO SHRA

TAF TAF TLPL
Valido dal 19 a 18 ore il 20 a 18 ore UTC


191700Z 1918/2018 09020KT 9999 SCT024 SCT042
TEMPO 1918/2012 SHRA BKN018 BKN040



MetMap, La meteo Aeronautica in un colpo d'occhio ! - Copyright ORBIFLY Dicembre 2007 - Disclaimer

ORBIFLY MET'MAP TEAM :

Programmazione e sviluppo : Alexandra Zaïnal
Concezione : Baudouin d'Aumeries
Aiuto per la programmazione : Marc-Olivier Méhu
Supporto tecnico e logistico : Manuel Goepfert
Aiuto per la traduzione : Arnaldo La Scala

Contatto : metmap@orbifly.com




FONTI E CREDITI :

   NOAA